Time;durP1;ratioP1;P1;durP2;ratioP2;P2;SDS_P1;SDS_P2;PMS_P1;PMS_P2;Temp;Humidity;BMP_temperature;BMP_pressure;BME280_temperature;BME280_humidity;BME280_pressure;Samples;Min_cycle;Max_cycle;Signal;HPM_P1;HPM_P2
2022/05/06 00:00:30;;;;;;;26.67;17.55;;;;;;;11.10;100.00;102420.25;10457374;28;20484;-59
2022/05/06 00:05:33;;;;;;;23.17;16.40;;;;;;;10.97;100.00;102421.59;10457791;28;20052;-59
2022/05/06 00:10:35;;;;;;;28.50;18.85;;;;;;;11.06;100.00;102429.16;10455888;28;20048;-59
2022/05/06 00:15:38;;;;;;;30.88;19.92;;;;;;;10.93;100.00;102427.84;10456849;28;20443;-59
2022/05/06 00:20:41;;;;;;;27.45;19.05;;;;;;;10.91;100.00;102422.66;10456772;28;20499;-59
2022/05/06 00:25:43;;;;;;;27.63;21.40;;;;;;;10.94;100.00;102432.16;10457174;28;20428;-59
2022/05/06 00:30:45;;;;;;;40.00;23.20;;;;;;;10.77;100.00;102435.34;10456461;28;20488;-59
2022/05/06 00:35:48;;;;;;;33.55;22.00;;;;;;;10.97;100.00;102432.06;10472419;28;20085;-59
2022/05/06 00:40:51;;;;;;;32.92;22.98;;;;;;;10.68;100.00;102428.63;10457545;28;20060;-59
2022/05/06 00:45:54;;;;;;;43.63;27.08;;;;;;;10.64;100.00;102437.50;10465517;28;20045;-59
2022/05/06 00:51:03;;;;;;;42.88;26.83;;;;;;;10.63;100.00;102425.31;10465291;28;20076;-59
2022/05/06 00:56:10;;;;;;;48.00;30.67;;;;;;;10.93;100.00;102435.72;10463611;28;20045;-59
2022/05/06 01:01:13;;;;;;;47.72;30.15;;;;;;;10.71;100.00;102422.44;10463138;28;20049;-59
2022/05/06 01:06:16;;;;;;;50.67;28.85;;;;;;;10.74;100.00;102424.94;10464814;28;20124;-59
2022/05/06 01:11:19;;;;;;;49.85;30.27;;;;;;;10.71;100.00;102418.06;10480135;22;20055;-60
2022/05/06 01:16:21;;;;;;;57.53;32.63;;;;;;;10.62;100.00;102433.19;10505818;28;20044;-60
2022/05/06 01:21:27;;;;;;;53.25;31.73;;;;;;;10.51;100.00;102430.94;10504971;28;20471;-60
2022/05/06 01:26:57;;;;;;;53.70;32.55;;;;;;;10.44;100.00;102432.88;10504952;28;20056;-60
2022/05/06 01:32:00;;;;;;;52.53;32.55;;;;;;;10.50;100.00;102439.69;10505126;28;20394;-60
2022/05/06 01:37:04;;;;;;;54.53;34.47;;;;;;;10.52;100.00;102437.88;10504330;28;20056;-60
2022/05/06 01:42:12;;;;;;;52.97;31.27;;;;;;;10.56;100.00;102442.13;10504727;28;20052;-60
2022/05/06 01:47:19;;;;;;;54.80;32.40;;;;;;;10.44;100.00;102440.75;10504690;28;20045;-60
2022/05/06 01:52:22;;;;;;;58.13;33.25;;;;;;;10.37;100.00;102445.31;10503601;28;20076;-60
2022/05/06 01:57:24;;;;;;;56.42;33.28;;;;;;;10.45;100.00;102446.81;10503018;28;20048;-60
2022/05/06 02:02:26;;;;;;;49.30;33.22;;;;;;;10.40;100.00;102455.66;10504030;28;20052;-60
2022/05/06 02:07:29;;;;;;;62.25;36.50;;;;;;;10.41;100.00;102457.38;10503205;28;20084;-60
2022/05/06 02:12:33;;;;;;;61.00;37.42;;;;;;;10.32;100.00;102448.94;10503262;28;20044;-60
2022/05/06 02:17:38;;;;;;;56.30;33.65;;;;;;;10.37;100.00;102444.44;10502854;28;20059;-60
2022/05/06 02:22:42;;;;;;;56.67;34.78;;;;;;;10.29;100.00;102443.75;10503262;28;20046;-60
2022/05/06 02:27:45;;;;;;;55.05;35.47;;;;;;;10.35;100.00;102446.25;10502435;28;20410;-60
2022/05/06 02:38:09;;;;;;;62.13;39.10;;;;;;;10.31;100.00;102441.97;10502747;28;20048;-60
2022/05/06 02:43:12;;;;;;;59.33;37.42;;;;;;;10.16;100.00;102443.28;10501871;28;20457;-60
2022/05/06 02:48:14;;;;;;;64.63;37.22;;;;;;;10.22;100.00;102440.47;10502361;28;20052;-60
2022/05/06 02:53:20;;;;;;;64.88;37.67;;;;;;;10.06;100.00;102434.00;10501300;28;20506;-60
2022/05/06 02:58:23;;;;;;;59.63;34.90;;;;;;;9.98;100.00;102442.91;10501219;28;20506;-60
2022/05/06 03:03:25;;;;;;;73.20;40.75;;;;;;;9.97;100.00;102435.97;10501560;28;20045;-60
2022/05/06 03:08:27;;;;;;;57.83;36.25;;;;;;;9.95;100.00;102444.75;10501344;28;20510;-60
2022/05/06 03:13:30;;;;;;;65.15;37.55;;;;;;;9.78;100.00;102451.31;10499174;28;20400;-60
2022/05/06 03:18:32;;;;;;;69.50;39.30;;;;;;;9.71;100.00;102446.31;10500997;28;20048;-60
2022/05/06 03:23:34;;;;;;;66.68;39.50;;;;;;;9.89;100.00;102439.72;10500811;28;20048;-60
2022/05/06 03:28:37;;;;;;;86.53;47.47;;;;;;;9.56;100.00;102447.56;10500568;28;20049;-60
2022/05/06 03:33:41;;;;;;;129.18;57.53;;;;;;;9.45;100.00;102453.09;10515303;28;20500;-60
2022/05/06 03:38:44;;;;;;;122.10;58.33;;;;;;;9.73;100.00;102454.97;10498984;28;20049;-60
2022/05/06 03:43:46;;;;;;;129.90;57.47;;;;;;;9.63;100.00;102454.34;10499957;28;20055;-60
2022/05/06 03:48:51;;;;;;;160.05;67.57;;;;;;;9.73;100.00;102454.97;10499729;28;20044;-60
2022/05/06 03:53:55;;;;;;;123.72;59.08;;;;;;;9.67;100.00;102459.47;10498832;28;20525;-60
2022/05/06 03:58:57;;;;;;;117.18;56.33;;;;;;;9.79;100.00;102445.19;10499302;28;20048;-60
2022/05/06 04:04:00;;;;;;;97.20;52.63;;;;;;;9.81;100.00;102455.59;10499274;28;20047;-60
2022/05/06 04:09:02;;;;;;;95.03;49.40;;;;;;;9.89;100.00;102453.66;10499104;28;20048;-60
2022/05/06 04:14:04;;;;;;;109.57;53.17;;;;;;;9.75;100.00;102455.78;10498132;28;20399;-60
2022/05/06 04:19:07;;;;;;;125.90;56.88;;;;;;;9.97;100.00;102462.13;10498467;28;20048;-60
2022/05/06 04:24:09;;;;;;;152.75;63.67;;;;;;;9.97;100.00;102464.75;10498157;28;20056;-60
2022/05/06 04:29:12;;;;;;;126.40;58.75;;;;;;;9.94;100.00;102466.59;10498020;28;20044;-60
2022/05/06 04:34:21;;;;;;;111.72;55.67;;;;;;;9.82;100.00;102471.25;10498537;28;20044;-60
2022/05/06 04:39:23;;;;;;;80.10;48.83;;;;;;;9.86;100.00;102464.19;10498444;28;20048;-60
2022/05/06 04:44:26;;;;;;;79.72;46.22;;;;;;;10.03;100.00;102466.31;10498322;28;20045;-60
2022/05/06 04:49:28;;;;;;;93.00;52.15;;;;;;;9.78;100.00;102468.78;10498307;28;20049;-60
2022/05/06 04:54:31;;;;;;;83.00;47.20;;;;;;;9.75;100.00;102474.97;10498128;28;20045;-60
2022/05/06 04:59:33;;;;;;;72.47;43.88;;;;;;;9.86;100.00;102478.13;10496353;28;20491;-60
2022/05/06 05:04:36;;;;;;;74.88;42.67;;;;;;;10.13;100.00;102482.63;10497381;28;20066;-60
2022/05/06 05:09:38;;;;;;;95.47;48.70;;;;;;;9.81;100.00;102487.00;10497280;28;20060;-60
2022/05/06 05:14:44;;;;;;;74.57;42.80;;;;;;;9.99;100.00;102496.13;10497051;28;20053;-60
2022/05/06 05:19:46;;;;;;;62.85;38.47;;;;;;;10.28;100.00;102504.91;10497765;28;20059;-60
2022/05/06 05:24:49;;;;;;;81.13;45.92;;;;;;;10.13;100.00;102504.41;10497606;28;20044;-60
2022/05/06 05:29:51;;;;;;;59.45;38.30;;;;;;;10.11;100.00;102518.47;10500732;28;20044;-60
2022/05/06 05:34:54;;;;;;;65.15;38.35;;;;;;;10.44;100.00;102513.19;10505079;28;20430;-60
2022/05/06 05:39:56;;;;;;;63.88;37.97;;;;;;;10.57;100.00;102523.28;10504256;28;20052;-60
2022/05/06 05:50:20;;;;;;;93.18;42.10;;;;;;;10.23;100.00;102520.72;10504467;28;20419;-60
2022/05/06 05:55:22;;;;;;;84.13;42.58;;;;;;;10.67;100.00;102512.50;10503667;28;20484;-60
2022/05/06 06:00:27;;;;;;;49.28;32.28;;;;;;;11.37;100.00;102508.53;10504170;28;20055;-60
2022/05/06 06:05:29;;;;;;;49.70;33.47;;;;;;;11.58;100.00;102493.84;10504605;28;20123;-60
2022/05/06 06:10:33;;;;;;;51.65;34.70;;;;;;;11.71;100.00;102495.97;10502943;28;20539;-61
2022/05/06 06:15:35;;;;;;;55.33;34.28;;;;;;;11.85;100.00;102498.13;10503487;28;20051;-60
2022/05/06 06:20:38;;;;;;;49.88;32.67;;;;;;;11.77;100.00;102494.91;10502762;28;20377;-61
2022/05/06 06:25:40;;;;;;;42.22;30.10;;;;;;;12.15;100.00;102492.69;10503181;28;20048;-61
2022/05/06 06:30:42;;;;;;;46.55;33.10;;;;;;;12.18;100.00;102496.97;10502998;28;20063;-61
2022/05/06 06:35:45;;;;;;;48.35;34.72;;;;;;;12.06;100.00;102508.78;10502802;28;20055;-61
2022/05/06 06:40:47;;;;;;;46.42;32.80;;;;;;;12.37;100.00;102508.53;10502244;28;20052;-61
2022/05/06 06:45:49;;;;;;;43.75;30.40;;;;;;;12.48;100.00;102505.47;10502418;28;20049;-61
2022/05/06 06:50:55;;;;;;;39.00;29.98;;;;;;;12.41;100.00;102510.09;10501841;28;20495;-61
2022/05/06 06:55:58;;;;;;;41.83;29.92;;;;;;;12.83;100.00;102511.13;10501365;28;20515;-61
2022/05/06 07:01:02;;;;;;;41.97;29.48;;;;;;;13.20;100.00;102513.13;10501187;28;20476;-61
2022/05/06 07:16:46;;;;;;;32.20;24.57;;;;;;;13.67;100.00;102527.03;10500444;28;20388;-61
2022/05/06 07:21:51;;;;;;;32.17;25.05;;;;;;;13.96;100.00;102528.38;10515984;28;20403;-61
2022/05/06 07:26:54;;;;;;;31.60;24.27;;;;;;;14.86;100.00;102536.56;10500760;28;20072;-61
2022/05/06 07:31:57;;;;;;;30.48;24.20;;;;;;;15.05;100.00;102539.16;10500521;28;20044;-61
2022/05/06 07:36:59;;;;;;;35.35;24.63;;;;;;;13.91;100.00;102540.91;10499605;28;20426;-61
2022/05/06 07:42:01;;;;;;;28.17;21.85;;;;;;;15.41;96.81;102538.28;10499994;28;20510;-61
2022/05/06 07:47:04;;;;;;;30.10;23.23;;;;;;;15.42;95.05;102550.53;10499941;28;20056;-61
2022/05/06 07:52:06;;;;;;;36.00;26.42;;;;;;;15.12;95.88;102549.44;10499069;28;20087;-61
2022/05/06 07:57:09;;;;;;;38.30;27.00;;;;;;;15.19;100.00;102554.31;10499034;28;20511;-61
2022/05/06 08:07:32;;;;;;;39.90;27.42;;;;;;;14.50;98.30;102555.78;10498607;28;20054;-61
2022/05/06 08:12:34;;;;;;;36.67;25.27;;;;;;;17.02;86.29;102558.91;10498858;28;20131;-61
2022/05/06 08:17:40;;;;;;;31.90;22.58;;;;;;;15.78;91.82;102556.72;10499009;28;20055;-61
2022/05/06 08:22:43;;;;;;;36.13;24.73;;;;;;;16.02;92.75;102556.38;10499480;28;20052;-61
2022/05/06 08:27:45;;;;;;;26.13;21.33;;;;;;;16.26;86.20;102552.44;10498777;28;20059;-61
2022/05/06 08:32:48;;;;;;;27.42;20.05;;;;;;;18.20;77.91;102554.53;10498454;28;20492;-61
2022/05/06 08:37:51;;;;;;;27.52;20.95;;;;;;;17.05;80.92;102556.06;10498563;28;20052;-61
2022/05/06 08:42:53;;;;;;;24.58;20.58;;;;;;;17.05;87.44;102556.91;10498444;28;20052;-61
2022/05/06 08:53:29;;;;;;;19.25;16.40;;;;;;;18.52;77.11;102525.16;10498304;28;20067;-61
2022/05/06 08:58:37;;;;;;;20.90;16.77;;;;;;;17.73;84.59;102534.44;10497566;28;20059;-61
2022/05/06 09:03:41;;;;;;;18.63;14.45;;;;;;;19.22;74.41;102526.84;10501868;28;20123;-62
2022/05/06 09:08:45;;;;;;;15.30;13.05;;;;;;;19.42;70.22;102522.00;10506646;28;20094;-61
2022/05/06 09:13:51;;;;;;;15.85;12.45;;;;;;;19.42;72.56;102520.19;10505779;28;20056;-61
2022/05/06 09:19:11;;;;;;;13.02;11.73;;;;;;;19.73;68.87;102519.91;10505812;28;20063;-61
2022/05/06 09:24:18;;;;;;;15.45;12.18;;;;;;;21.05;65.19;102525.59;10505069;28;20506;-61
2022/05/06 09:29:31;;;;;;;12.63;11.25;;;;;;;20.41;67.87;102524.00;10505429;28;20052;-62
2022/05/06 09:34:33;;;;;;;15.73;11.57;;;;;;;21.66;66.30;102518.28;10505105;28;20048;-62
2022/05/06 09:39:38;;;;;;;9.10;8.20;;;;;;;21.43;61.58;102521.84;10505037;28;20052;-61
2022/05/06 09:44:47;;;;;;;11.23;10.20;;;;;;;20.78;65.26;102521.34;10505477;28;20052;-62
2022/05/06 09:49:51;;;;;;;10.25;9.25;;;;;;;22.22;58.08;102525.44;10504701;28;20055;-61
2022/05/06 09:54:54;;;;;;;12.65;10.35;;;;;;;20.85;64.67;102517.28;10504369;28;20052;-61
2022/05/06 09:59:57;;;;;;;9.50;8.55;;;;;;;22.04;64.25;102508.22;10503013;28;20048;-61
2022/05/06 10:04:59;;;;;;;10.55;6.93;;;;;;;21.88;58.47;102495.28;10503451;28;20396;-62
2022/05/06 10:10:15;;;;;;;7.55;6.85;;;;;;;22.63;56.52;102507.94;10503910;28;20055;-61
2022/05/06 10:15:19;;;;;;;11.48;10.30;;;;;;;21.20;59.37;102503.13;10500948;28;20408;-61
2022/05/06 10:20:36;;;;;;;9.45;8.55;;;;;;;23.54;55.00;102487.00;10501681;28;20049;-61
2022/05/06 10:25:48;;;;;;;8.57;7.55;;;;;;;22.88;57.74;102491.69;10503287;28;20048;-61
2022/05/06 10:36:47;;;;;;;6.80;5.47;;;;;;;24.05;53.18;102481.75;10502944;28;20045;-61
2022/05/06 10:42:06;;;;;;;5.63;5.15;;;;;;;23.15;56.60;102477.91;10502795;28;20048;-62
2022/05/06 10:47:20;;;;;;;7.95;6.88;;;;;;;21.57;53.28;102478.16;10502549;28;20044;-61
2022/05/06 10:52:26;;;;;;;6.72;4.90;;;;;;;22.66;57.12;102463.28;10501687;28;20045;-61
2022/05/06 10:57:30;;;;;;;5.05;4.65;;;;;;;25.60;47.82;102469.34;10501914;28;20480;-62
2022/05/06 11:02:38;;;;;;;5.38;4.32;;;;;;;24.42;49.01;102468.59;10501772;28;20102;-62
2022/05/06 11:07:42;;;;;;;3.13;2.67;;;;;;;28.01;42.77;102456.91;10500964;28;20491;-62
2022/05/06 11:12:45;;;;;;;7.13;2.95;;;;;;;25.25;46.88;102451.25;10500945;28;20060;-62
2022/05/06 11:17:49;;;;;;;3.28;3.08;;;;;;;25.75;44.21;102443.75;10500459;28;20048;-62
2022/05/06 11:23:08;;;;;;;4.78;4.10;;;;;;;25.57;45.42;102448.19;10500964;28;20052;-62
2022/05/06 11:28:24;;;;;;;4.28;3.72;;;;;;;24.40;48.16;102449.16;10500292;28;20136;-62
2022/05/06 11:33:32;;;;;;;3.10;2.90;;;;;;;24.59;45.67;102448.34;10500550;28;20056;-62
2022/05/06 11:38:39;;;;;;;5.65;3.92;;;;;;;26.59;41.63;102443.66;10500430;28;20056;-62
2022/05/06 11:43:43;;;;;;;3.00;2.80;;;;;;;27.11;40.21;102438.41;10500211;28;20056;-62
2022/05/06 11:48:47;;;;;;;3.40;3.20;;;;;;;25.11;45.56;102423.91;10499979;28;20056;-62
2022/05/06 11:53:50;;;;;;;3.58;3.28;;;;;;;26.96;40.64;102426.53;10499079;28;20381;-62
2022/05/06 11:58:58;;;;;;;4.50;4.10;;;;;;;25.16;42.72;102415.44;10497824;28;20070;-62
2022/05/06 12:04:02;;;;;;;5.35;3.85;;;;;;;27.01;41.83;102408.94;10498286;28;20048;-62
2022/05/06 12:09:17;;;;;;;3.88;3.58;;;;;;;28.56;38.20;102404.31;10498693;28;20131;-62
2022/05/06 12:14:19;;;;;;;5.00;4.57;;;;;;;27.33;41.69;102403.94;10497660;28;20052;-62
2022/05/06 12:19:38;;;;;;;4.65;4.28;;;;;;;24.98;42.24;102404.59;10497733;28;20048;-62
2022/05/06 12:24:48;;;;;;;4.10;3.60;;;;;;;27.14;44.09;102394.25;10499006;28;20048;-62
2022/05/06 12:29:50;;;;;;;5.20;3.47;;;;;;;26.86;41.91;102392.56;10499077;28;20448;-62
2022/05/06 12:35:06;;;;;;;5.07;3.80;;;;;;;28.72;37.88;102403.47;10498044;28;20376;-62
2022/05/06 12:40:10;;;;;;;3.72;3.40;;;;;;;26.61;37.97;102391.50;10497596;28;20079;-62
2022/05/06 12:45:13;;;;;;;3.10;2.80;;;;;;;27.30;38.15;102375.50;10497359;28;20123;-62
2022/05/06 12:50:15;;;;;;;4.25;3.80;;;;;;;26.88;40.08;102384.31;10497755;28;20463;-62
2022/05/06 12:55:17;;;;;;;3.17;2.95;;;;;;;26.61;38.41;102378.06;10498220;28;20041;-62
2022/05/06 13:00:21;;;;;;;3.35;3.05;;;;;;;29.03;35.53;102363.16;10498177;28;20052;-62
2022/05/06 13:05:24;;;;;;;4.50;4.10;;;;;;;28.52;36.84;102373.31;10498142;28;20055;-62
2022/05/06 13:10:26;;;;;;;2.40;2.30;;;;;;;26.65;40.71;102374.09;10496960;28;20051;-62
2022/05/06 13:15:28;;;;;;;3.30;2.42;;;;;;;27.19;37.04;102359.66;10497158;28;20056;-62
2022/05/06 13:20:31;;;;;;;2.30;2.10;;;;;;;25.78;40.88;102356.78;10497763;28;20048;-62
2022/05/06 13:25:35;;;;;;;2.70;2.50;;;;;;;27.23;37.78;102355.63;10500369;22;20057;-64
2022/05/06 13:30:38;;;;;;;4.57;2.33;;;;;;;26.80;37.98;102355.56;10455576;28;20446;-64
2022/05/06 13:35:41;;;;;;;2.65;2.10;;;;;;;26.19;38.77;102356.38;10455365;28;20404;-64
2022/05/06 13:40:46;;;;;;;2.13;1.60;;;;;;;28.08;35.05;102357.47;10455276;28;20404;-64
2022/05/06 13:45:48;;;;;;;3.30;3.10;;;;;;;26.36;38.19;102352.00;10455887;28;20131;-64
2022/05/06 13:50:50;;;;;;;3.22;2.88;;;;;;;28.71;34.60;102358.66;10459387;28;20053;-64
2022/05/06 14:01:15;;;;;;;5.28;3.17;;;;;;;26.57;37.64;102347.13;10462920;28;20045;-64
2022/05/06 14:06:18;;;;;;;3.65;3.30;;;;;;;27.74;36.46;102337.72;10462750;28;20099;-64
2022/05/06 14:11:20;;;;;;;4.40;3.00;;;;;;;27.73;37.34;102344.06;10461799;28;20400;-64
2022/05/06 14:16:26;;;;;;;2.78;2.28;;;;;;;26.62;37.89;102336.75;10462258;28;20044;-64
2022/05/06 14:21:29;;;;;;;3.25;2.60;;;;;;;27.31;34.06;102327.97;10462145;28;20059;-64
2022/05/06 14:26:33;;;;;;;3.63;2.60;;;;;;;25.74;34.88;102334.78;10461700;28;20060;-64
2022/05/06 14:31:35;;;;;;;3.95;2.63;;;;;;;26.52;33.27;102331.47;10461091;28;20506;-64
2022/05/06 14:36:37;;;;;;;6.68;3.15;;;;;;;24.77;34.35;102333.31;10461493;28;20041;-64
2022/05/06 14:41:40;;;;;;;4.90;1.83;;;;;;;27.80;31.20;102328.94;10461299;28;20048;-64
2022/05/06 14:46:42;;;;;;;5.95;5.35;;;;;;;26.48;34.45;102327.44;10461170;28;20045;-64
2022/05/06 14:51:44;;;;;;;9.65;7.57;;;;;;;25.78;39.18;102327.28;10460272;28;20488;-64
2022/05/06 14:56:47;;;;;;;9.90;7.00;;;;;;;24.99;40.85;102315.22;10460053;28;20055;-64
2022/05/06 15:01:49;;;;;;;13.68;10.05;;;;;;;25.08;42.89;102314.31;10460343;28;20474;-63
2022/05/06 15:06:52;;;;;;;10.55;8.02;;;;;;;26.98;40.14;102306.28;10459721;28;20049;-63
2022/05/06 15:11:54;;;;;;;13.13;9.55;;;;;;;25.38;42.21;102304.34;10460152;28;20052;-63
2022/05/06 15:17:00;;;;;;;14.82;11.00;;;;;;;23.67;45.13;102296.97;10459871;28;20049;-64
2022/05/06 15:22:06;;;;;;;14.18;11.55;;;;;;;24.50;43.15;102291.22;10459875;28;20052;-64
2022/05/06 15:27:08;;;;;;;18.15;12.40;;;;;;;24.25;43.82;102300.69;10460037;28;20051;-63
2022/05/06 15:32:11;;;;;;;20.35;11.93;;;;;;;24.46;45.54;102292.47;10459316;28;20049;-63
2022/05/06 15:37:13;;;;;;;17.35;11.40;;;;;;;23.90;45.43;102299.41;10459275;28;20049;-63
2022/05/06 15:42:15;;;;;;;14.30;9.98;;;;;;;24.85;44.73;102287.06;10474191;28;20514;-63
2022/05/06 15:47:18;;;;;;;15.02;10.90;;;;;;;24.70;44.89;102285.84;10458601;28;20045;-63
2022/05/06 15:52:20;;;;;;;15.30;11.48;;;;;;;23.16;49.11;102288.06;10458137;28;20044;-63
2022/05/06 15:57:22;;;;;;;15.43;10.18;;;;;;;23.76;45.97;102289.09;10473509;28;20480;-63
2022/05/06 16:02:25;;;;;;;18.90;11.73;;;;;;;22.76;48.23;102282.66;10458193;28;20059;-63
2022/05/06 16:07:27;;;;;;;17.88;12.82;;;;;;;22.26;49.08;102283.28;10457985;28;20045;-63
2022/05/06 16:12:29;;;;;;;16.40;11.35;;;;;;;23.21;47.60;102279.66;10457659;28;20049;-63
2022/05/06 16:17:32;;;;;;;13.95;9.15;;;;;;;23.36;47.65;102267.59;10457574;28;20049;-64
2022/05/06 16:22:34;;;;;;;17.20;10.77;;;;;;;22.37;50.31;102258.41;10457609;28;20055;-63
2022/05/06 16:27:40;;;;;;;16.13;9.98;;;;;;;22.33;50.17;102264.97;10457188;28;20049;-64
2022/05/06 16:32:42;;;;;;;18.63;11.48;;;;;;;22.16;50.78;102256.53;10456705;28;20400;-63
2022/05/06 16:37:46;;;;;;;13.93;9.52;;;;;;;23.18;48.31;102255.88;10456485;28;20423;-63
2022/05/06 16:42:48;;;;;;;11.38;8.85;;;;;;;22.82;48.70;102250.09;10457098;28;20051;-63
2022/05/06 16:47:50;;;;;;;15.73;9.50;;;;;;;21.74;50.33;102256.47;10455143;28;20420;-63
2022/05/06 16:52:53;;;;;;;14.95;9.27;;;;;;;22.45;47.56;102240.75;10456842;28;20049;-63
2022/05/06 16:57:55;;;;;;;12.38;8.45;;;;;;;22.12;48.60;102238.25;10455569;28;20120;-63
2022/05/06 17:02:57;;;;;;;11.38;8.50;;;;;;;22.39;48.12;102240.44;10456615;28;20053;-63
2022/05/06 17:08:00;;;;;;;11.40;8.57;;;;;;;21.93;49.00;102247.78;10456626;28;20041;-63
2022/05/06 17:13:02;;;;;;;9.15;8.23;;;;;;;21.83;49.83;102245.03;10456523;28;20053;-63
2022/05/06 17:18:06;;;;;;;23.85;10.07;;;;;;;21.51;51.79;102251.19;10456388;28;20045;-63
2022/05/06 17:23:14;;;;;;;11.63;9.27;;;;;;;21.38;50.70;102253.09;10457164;28;20049;-63
2022/05/06 17:28:22;;;;;;;11.15;7.90;;;;;;;21.22;51.69;102250.84;10463730;28;20055;-63
2022/05/06 17:33:24;;;;;;;13.27;8.88;;;;;;;20.35;54.59;102258.47;10463427;28;20048;-63
2022/05/06 17:38:27;;;;;;;9.48;8.13;;;;;;;20.60;54.23;102249.44;10463111;28;20403;-63
2022/05/06 17:43:29;;;;;;;12.70;8.40;;;;;;;20.65;54.32;102252.63;10463670;28;20064;-63
2022/05/06 17:48:32;;;;;;;9.82;8.70;;;;;;;20.91;52.68;102247.97;10462856;28;20398;-63
2022/05/06 17:53:34;;;;;;;9.07;8.15;;;;;;;20.28;55.34;102246.59;10462634;28;20048;-63
2022/05/06 17:58:37;;;;;;;11.00;7.38;;;;;;;20.23;56.62;102247.78;10463020;28;20049;-64
2022/05/06 18:03:39;;;;;;;9.10;8.15;;;;;;;20.20;54.31;102253.31;10462901;28;20057;-63
2022/05/06 18:08:42;;;;;;;8.88;7.40;;;;;;;20.03;56.81;102253.75;10462663;28;20063;-63
2022/05/06 18:13:45;;;;;;;10.45;7.32;;;;;;;20.18;55.75;102244.63;10462036;28;20400;-63
2022/05/06 18:18:52;;;;;;;6.70;5.63;;;;;;;19.77;59.49;102261.88;10462183;28;20048;-63
2022/05/06 18:23:54;;;;;;;5.90;5.25;;;;;;;19.49;62.07;102265.63;10461536;28;20408;-63
2022/05/06 18:28:57;;;;;;;6.60;5.40;;;;;;;19.10;65.07;102267.53;10461556;28;20515;-63
2022/05/06 18:34:00;;;;;;;6.03;4.97;;;;;;;18.84;65.34;102267.53;10461713;28;20064;-63
2022/05/06 18:39:03;;;;;;;7.82;5.20;;;;;;;18.55;67.09;102262.38;10460874;28;20041;-63
2022/05/06 18:44:05;;;;;;;5.68;4.50;;;;;;;18.21;69.57;102269.13;10461300;28;20055;-63
2022/05/06 18:49:07;;;;;;;6.25;4.90;;;;;;;18.29;69.14;102263.28;10461142;28;20049;-63
2022/05/06 18:54:10;;;;;;;6.85;4.55;;;;;;;17.91;71.50;102269.34;10460827;28;20053;-63
2022/05/06 18:59:12;;;;;;;5.75;4.65;;;;;;;17.70;74.21;102268.88;10460698;28;20056;-63
2022/05/06 19:04:14;;;;;;;6.55;5.40;;;;;;;17.59;73.43;102270.44;10459529;28;20055;-63
2022/05/06 19:09:17;;;;;;;7.93;5.55;;;;;;;17.31;76.73;102273.97;10460037;28;20053;-63
2022/05/06 19:14:19;;;;;;;7.38;5.88;;;;;;;17.02;78.48;102270.50;10460119;28;20045;-63
2022/05/06 19:19:21;;;;;;;5.53;4.80;;;;;;;16.96;78.55;102269.06;10459290;28;20435;-63
2022/05/06 19:29:45;;;;;;;7.40;4.78;;;;;;;16.47;82.72;102266.69;10459100;28;20056;-62
2022/05/06 19:34:57;;;;;;;6.05;5.45;;;;;;;16.14;83.75;102275.66;10459441;28;20049;-63
2022/05/06 19:40:00;;;;;;;9.95;5.05;;;;;;;16.18;83.64;102273.69;10458923;28;20451;-62
2022/05/06 19:45:05;;;;;;;5.43;4.90;;;;;;;16.22;84.02;102281.31;10458289;28;20049;-62
2022/05/06 19:50:08;;;;;;;7.75;5.85;;;;;;;15.98;85.14;102287.06;10457801;28;20057;-62
2022/05/06 19:55:10;;;;;;;11.35;5.40;;;;;;;15.82;86.21;102288.03;10458382;28;20050;-62
2022/05/06 20:00:13;;;;;;;6.85;6.18;;;;;;;15.75;87.10;102293.69;10458298;28;20084;-62
2022/05/06 20:05:16;;;;;;;7.55;6.22;;;;;;;15.62;88.04;102292.63;10458086;28;20070;-62
2022/05/06 20:10:18;;;;;;;14.68;6.88;;;;;;;15.63;87.79;102288.19;10457907;28;20053;-63
2022/05/06 20:15:21;;;;;;;15.38;8.13;;;;;;;15.48;88.45;102285.44;10457008;28;20049;-62
2022/05/06 20:20:24;;;;;;;9.48;6.82;;;;;;;15.51;88.38;102289.69;10457477;28;20055;-62
2022/05/06 20:25:27;;;;;;;9.02;6.47;;;;;;;15.30;90.62;102279.38;10455889;28;20056;-62
2022/05/06 20:30:29;;;;;;;8.48;7.15;;;;;;;15.33;90.86;102280.97;10457169;28;20064;-62
2022/05/06 20:35:31;;;;;;;7.97;6.35;;;;;;;15.15;93.01;102283.69;10456544;28;20519;-62
2022/05/06 20:40:34;;;;;;;9.82;7.35;;;;;;;15.11;92.59;102274.22;10456483;28;20053;-62
2022/05/06 20:45:39;;;;;;;8.38;7.15;;;;;;;14.91;94.92;102283.19;10439432;28;20051;-62
2022/05/06 20:50:41;;;;;;;10.65;7.82;;;;;;;15.04;92.62;102281.59;10457515;28;20061;-62
2022/05/06 20:55:44;;;;;;;10.25;7.90;;;;;;;15.02;93.67;102282.63;10456740;28;20041;-62
2022/05/06 21:00:46;;;;;;;11.20;8.43;;;;;;;14.76;95.45;102278.69;10461890;28;20523;-62
2022/05/06 21:05:49;;;;;;;14.98;10.00;;;;;;;14.65;97.49;102280.09;10480036;28;20047;-62
2022/05/06 21:16:14;;;;;;;18.20;10.60;;;;;;;14.53;97.19;102282.50;10465045;28;20041;-62
2022/05/06 21:21:16;;;;;;;9.48;8.15;;;;;;;14.59;96.94;102283.06;10465192;28;20056;-62
2022/05/06 21:26:19;;;;;;;11.45;9.10;;;;;;;14.39;99.39;102281.41;10464112;28;20136;-62
2022/05/06 21:31:21;;;;;;;13.70;11.15;;;;;;;14.29;99.97;102281.00;10463548;28;20075;-62
2022/05/06 21:36:24;;;;;;;15.43;10.18;;;;;;;14.38;99.82;102274.41;10462809;28;20048;-62
2022/05/06 21:41:26;;;;;;;11.10;9.70;;;;;;;14.23;100.00;102276.03;10463171;28;20049;-62
2022/05/06 21:46:29;;;;;;;13.15;9.50;;;;;;;14.11;100.00;102272.22;10463589;28;20060;-62
2022/05/06 21:51:31;;;;;;;14.88;10.02;;;;;;;14.19;100.00;102271.84;10463387;28;20102;-62
2022/05/06 21:56:34;;;;;;;12.18;10.90;;;;;;;14.04;100.00;102278.72;10461324;28;20049;-62
2022/05/06 22:01:36;;;;;;;13.93;11.60;;;;;;;14.18;100.00;102274.56;10461796;28;20507;-62
2022/05/06 22:06:40;;;;;;;16.80;12.18;;;;;;;14.05;100.00;102267.22;10462818;28;20049;-62
2022/05/06 22:11:42;;;;;;;15.95;13.68;;;;;;;14.12;100.00;102267.78;10461649;28;20049;-62
2022/05/06 22:16:45;;;;;;;17.35;14.35;;;;;;;14.00;100.00;102269.25;10462299;28;20051;-62
2022/05/06 22:21:48;;;;;;;17.08;13.60;;;;;;;13.84;100.00;102263.88;10462170;28;20132;-62
2022/05/06 22:26:50;;;;;;;18.42;13.98;;;;;;;13.78;100.00;102266.78;10461688;28;20056;-62
2022/05/06 22:31:53;;;;;;;15.63;14.02;;;;;;;13.66;100.00;102264.75;10461828;28;20064;-62
2022/05/06 22:36:55;;;;;;;16.08;14.38;;;;;;;13.57;100.00;102261.63;10461581;28;20045;-62
2022/05/06 22:47:18;;;;;;;15.57;13.90;;;;;;;13.43;100.00;102261.44;10461375;28;20127;-61
2022/05/06 22:52:20;;;;;;;16.90;12.70;;;;;;;13.31;100.00;102254.88;10460472;28;20075;-62
2022/05/06 22:57:22;;;;;;;17.15;13.80;;;;;;;13.40;100.00;102264.19;10460172;28;20404;-61
2022/05/06 23:02:25;;;;;;;14.95;13.35;;;;;;;13.33;100.00;102257.47;10460679;28;20135;-61
2022/05/06 23:07:27;;;;;;;15.50;13.68;;;;;;;13.14;100.00;102253.03;10459839;28;20102;-62
2022/05/06 23:12:29;;;;;;;16.25;14.55;;;;;;;13.15;100.00;102251.28;10458933;28;20049;-62
2022/05/06 23:17:32;;;;;;;16.55;14.30;;;;;;;13.17;100.00;102252.06;10459384;28;20484;-62
2022/05/06 23:22:34;;;;;;;15.63;13.50;;;;;;;13.13;100.00;102243.44;10459030;28;20474;-62
2022/05/06 23:27:36;;;;;;;17.63;13.73;;;;;;;13.11;100.00;102242.66;10458817;28;20056;-62
2022/05/06 23:32:39;;;;;;;16.27;14.57;;;;;;;13.00;100.00;102239.66;10458935;28;20500;-61
2022/05/06 23:37:43;;;;;;;15.45;13.52;;;;;;;13.03;100.00;102239.53;10458548;28;20045;-61
2022/05/06 23:42:45;;;;;;;17.27;15.45;;;;;;;13.11;100.00;102247.06;10459023;28;20053;-61
2022/05/06 23:47:47;;;;;;;16.27;13.85;;;;;;;13.16;100.00;102243.31;10458152;28;20049;-61